Time;durP1;ratioP1;P1;durP2;ratioP2;P2;SDS_P1;SDS_P2;PMS_P1;PMS_P2;Temp;Humidity;BMP_temperature;BMP_pressure;BME280_temperature;BME280_humidity;BME280_pressure;Samples;Min_cycle;Max_cycle;Signal;HPM_P1;HPM_P2
2022/08/20 00:02:00;;;;;;;9.40;6.07;;;20.90;99.90;;;;;;4820450;29;21240;-80
2022/08/20 00:06:15;;;;;;;12.15;5.85;;;20.80;99.90;;;;;;4788956;29;20575;-82
2022/08/20 00:10:31;;;;;;;10.43;6.32;;;20.70;99.90;;;;;;4840476;29;20253;-80
2022/08/20 00:14:47;;;;;;;10.68;6.45;;;20.80;99.90;;;;;;4818187;29;20722;-80
2022/08/20 00:19:03;;;;;;;11.05;5.43;;;20.70;99.90;;;;;;4771615;29;20289;-80
2022/08/20 00:23:19;;;;;;;10.38;6.50;;;20.80;99.90;;;;;;4742914;30;20256;-81
2022/08/20 00:27:35;;;;;;;13.07;6.55;;;20.80;99.90;;;;;;4704397;30;20260;-80
2022/08/20 00:31:51;;;;;;;13.65;6.15;;;20.60;99.90;;;;;;4673733;30;20664;-80
2022/08/20 00:36:08;;;;;;;14.07;6.80;;;20.60;99.90;;;;;;4679862;30;20274;-79
2022/08/20 00:40:22;;;;;;;9.25;5.85;;;20.50;99.90;;;;;;4704709;30;20233;-80
2022/08/20 00:44:25;;;;;;;8.32;5.90;;;20.40;99.90;;;;;;4708011;30;20213;-80
2022/08/20 00:48:40;;;;;;;9.43;6.22;;;20.40;99.90;;;;;;4758280;30;20202;-80
2022/08/20 00:52:57;;;;;;;12.95;6.45;;;20.30;99.90;;;;;;4712836;30;20244;-80
2022/08/20 00:57:15;;;;;;;11.38;6.53;;;20.30;99.90;;;;;;4787022;29;20753;-80
2022/08/20 01:01:33;;;;;;;11.43;6.82;;;20.30;99.90;;;;;;4780794;29;20575;-80
2022/08/20 01:05:47;;;;;;;9.23;6.32;;;20.20;99.90;;;;;;4824834;29;20257;-81
2022/08/20 05:52:07;;;;;;;10.90;6.80;;;19.00;99.90;;;;;;4970289;28;20468;-84
2022/08/20 05:54:36;;;;;;;12.23;7.28;;;19.10;99.90;;;;;;4991139;28;20492;-85
2022/08/20 05:57:04;;;;;;;13.05;6.25;;;19.10;99.90;;;;;;4991454;28;20389;-85
2022/08/20 05:59:35;;;;;;;13.93;6.30;;;19.00;99.90;;;;;;4992533;28;20732;-84
2022/08/20 06:04:23;;;;;;;10.70;6.25;;;19.00;99.90;;;;;;4991994;28;20491;-85
2022/08/20 06:04:50;;;;;;;10.18;6.50;;;19.10;99.90;;;;;;4988880;28;20393;-86
2022/08/20 06:07:22;;;;;;;12.13;6.53;;;19.20;99.90;;;;;;4982397;28;20434;-84
2022/08/20 06:09:50;;;;;;;10.38;6.70;;;19.20;99.90;;;;;;4971419;28;20417;-85
2022/08/20 06:12:18;;;;;;;9.88;6.38;;;19.20;99.90;;;;;;5000155;28;20466;-85
2022/08/20 06:14:46;;;;;;;10.90;6.35;;;19.20;99.90;;;;;;4991161;28;20385;-86
2022/08/20 06:17:17;;;;;;;12.18;6.80;;;19.20;99.90;;;;;;4991451;28;20552;-85
2022/08/20 06:19:48;;;;;;;12.95;6.50;;;19.20;99.90;;;;;;4991308;28;20909;-85
2022/08/20 06:22:16;;;;;;;11.02;6.30;;;19.20;99.90;;;;;;4995264;28;20387;-85
2022/08/20 06:24:53;;;;;;;10.57;6.22;;;19.20;99.90;;;;;;5011533;28;20493;-86
2022/08/20 06:27:22;;;;;;;11.23;6.30;;;19.20;99.90;;;;;;5011630;28;20447;-85
2022/08/20 06:29:50;;;;;;;10.65;6.22;;;19.20;99.90;;;;;;4994966;28;20433;-85
2022/08/20 06:32:20;;;;;;;38.97;8.60;;;19.20;99.90;;;;;;4995015;28;20460;-85
2022/08/20 06:35:01;;;;;;;11.70;6.63;;;19.20;99.90;;;;;;4991167;28;20428;-85
2022/08/20 06:37:31;;;;;;;12.75;6.38;;;19.20;99.90;;;;;;4994804;28;20413;-85
2022/08/20 06:40:10;;;;;;;13.75;6.35;;;19.30;99.90;;;;;;4994688;28;20941;-83
2022/08/20 06:42:40;;;;;;;10.87;6.53;;;19.20;99.90;;;;;;4994831;28;20421;-86
2022/08/20 06:45:20;;;;;;;13.05;6.47;;;19.20;99.90;;;;;;4989467;28;20416;-86
2022/08/20 06:47:48;;;;;;;12.43;6.80;;;19.20;99.90;;;;;;4994982;28;20427;-85
2022/08/20 06:50:19;;;;;;;11.65;6.80;;;19.20;99.90;;;;;;4978427;28;20436;-85
2022/08/20 06:52:47;;;;;;;10.45;5.90;;;19.20;99.90;;;;;;4994535;28;20814;-84
2022/08/20 06:55:21;;;;;;;12.50;6.28;;;19.20;99.90;;;;;;4995549;28;20459;-83
2022/08/20 06:58:00;;;;;;;10.30;5.97;;;19.10;99.90;;;;;;5008866;28;20476;-84
2022/08/20 07:00:31;;;;;;;11.88;6.22;;;19.20;99.90;;;;;;4994457;28;20949;-85
2022/08/20 07:02:59;;;;;;;8.65;5.68;;;19.30;99.90;;;;;;5010410;28;20755;-85
2022/08/20 07:05:28;;;;;;;9.35;5.50;;;19.30;99.90;;;;;;4995638;28;20397;-85
2022/08/20 07:07:57;;;;;;;10.53;5.57;;;19.30;99.90;;;;;;4995707;28;20755;-85
2022/08/20 07:10:25;;;;;;;9.05;5.75;;;19.30;99.90;;;;;;4994369;28;20389;-85
2022/08/20 07:12:54;;;;;;;9.65;5.90;;;19.30;99.90;;;;;;4974842;28;20918;-85
2022/08/20 07:15:24;;;;;;;9.73;4.88;;;19.40;99.90;;;;;;4999964;28;20389;-85
2022/08/20 07:17:55;;;;;;;10.35;5.10;;;19.40;99.90;;;;;;5010475;28;20400;-86
2022/08/20 07:20:30;;;;;;;11.02;5.30;;;19.50;99.90;;;;;;5010362;28;20475;-85
2022/08/20 07:22:59;;;;;;;12.30;5.47;;;19.50;99.90;;;;;;4995227;28;20760;-85
2022/08/20 07:25:28;;;;;;;11.70;5.50;;;19.60;99.90;;;;;;4995224;28;20392;-85
2022/08/20 07:28:01;;;;;;;36.15;7.90;;;19.60;99.90;;;;;;4995180;28;20404;-85
2022/08/20 07:33:25;;;;;;;10.30;5.60;;;19.80;99.90;;;;;;4993868;28;20412;-85
2022/08/20 07:35:56;;;;;;;39.38;7.32;;;19.80;99.90;;;;;;4993778;28;20413;-85
2022/08/20 07:38:26;;;;;;;11.87;6.20;;;19.80;99.90;;;;;;4995133;28;20447;-85
2022/08/20 07:40:58;;;;;;;10.43;5.40;;;19.90;99.90;;;;;;4995086;28;20425;-85
2022/08/20 07:43:27;;;;;;;10.95;5.50;;;19.80;99.90;;;;;;4994740;28;20753;-85
2022/08/20 07:45:59;;;;;;;11.27;5.47;;;19.80;99.90;;;;;;4993674;28;20887;-85
2022/08/20 07:48:29;;;;;;;10.98;5.85;;;19.80;99.90;;;;;;4993516;28;20424;-85
2022/08/20 07:51:03;;;;;;;11.65;5.72;;;19.90;99.90;;;;;;4992667;28;20404;-86
2022/08/20 07:53:36;;;;;;;14.23;5.90;;;19.90;99.90;;;;;;4988485;28;20438;-85
2022/08/20 07:56:06;;;;;;;10.77;5.85;;;19.90;99.90;;;;;;4993911;28;20936;-85
2022/08/20 07:58:35;;;;;;;10.02;5.75;;;19.90;99.90;;;;;;5008304;28;20408;-84
2022/08/20 08:01:07;;;;;;;11.85;5.43;;;19.90;99.90;;;;;;4994608;28;20759;-85
2022/08/20 08:03:36;;;;;;;10.27;5.53;;;19.90;99.90;;;;;;5009716;28;20405;-84
2022/08/20 08:06:22;;;;;;;8.43;5.10;;;19.90;99.90;;;;;;4993586;28;20747;-85
2022/08/20 08:09:07;;;;;;;9.48;5.50;;;20.00;99.90;;;;;;4994448;28;20392;-85
2022/08/20 08:11:38;;;;;;;11.25;5.88;;;20.00;99.90;;;;;;4994329;28;20855;-85
2022/08/20 08:14:09;;;;;;;12.05;5.88;;;20.00;99.90;;;;;;4994320;28;20431;-84
2022/08/20 08:16:38;;;;;;;10.30;6.03;;;20.00;99.90;;;;;;4994086;28;20492;-84
2022/08/20 08:19:10;;;;;;;13.45;5.60;;;20.10;99.90;;;;;;5009204;28;20468;-85
2022/08/20 08:21:38;;;;;;;10.30;5.63;;;20.10;99.90;;;;;;5009305;28;20393;-85
2022/08/20 08:24:06;;;;;;;10.05;5.22;;;20.10;99.90;;;;;;4994138;28;20396;-84
2022/08/20 08:26:34;;;;;;;7.80;5.27;;;20.10;99.90;;;;;;4994104;28;20392;-85
2022/08/20 08:29:03;;;;;;;9.85;4.75;;;20.10;99.90;;;;;;4992809;28;20964;-85
2022/08/20 08:31:30;;;;;;;10.32;5.43;;;20.10;99.90;;;;;;5009010;28;20421;-85
2022/08/20 08:33:58;;;;;;;9.97;5.20;;;20.10;99.90;;;;;;5009155;28;20432;-85
2022/08/20 08:36:26;;;;;;;9.90;5.00;;;20.10;99.90;;;;;;4993977;28;20389;-86
2022/08/20 08:38:55;;;;;;;11.68;5.43;;;20.10;99.90;;;;;;5008987;28;20393;-86
2022/08/20 08:41:31;;;;;;;11.18;5.60;;;20.10;99.90;;;;;;5008950;28;20751;-85
2022/08/20 08:44:06;;;;;;;13.07;6.03;;;20.10;99.90;;;;;;4991709;28;20401;-86
2022/08/20 08:46:44;;;;;;;7.95;5.05;;;20.20;99.90;;;;;;5008795;28;20405;-85
2022/08/20 08:49:18;;;;;;;10.13;5.70;;;20.30;99.90;;;;;;4993693;28;20505;-84
2022/08/20 08:52:05;;;;;;;11.05;5.60;;;20.20;99.90;;;;;;4993528;28;20808;-85
2022/08/20 08:54:34;;;;;;;13.13;6.55;;;20.20;99.90;;;;;;5008638;28;20413;-86
2022/08/20 08:57:02;;;;;;;10.18;5.50;;;20.20;99.90;;;;;;4993635;28;20475;-84
2022/08/20 08:59:32;;;;;;;12.57;5.68;;;20.20;99.90;;;;;;4993491;28;20405;-85
2022/08/20 09:02:24;;;;;;;8.95;5.53;;;20.20;99.90;;;;;;4992607;28;20389;-84
2022/08/20 09:04:55;;;;;;;8.63;5.47;;;20.20;99.90;;;;;;4993303;28;20492;-84
2022/08/20 09:07:27;;;;;;;9.40;5.80;;;20.30;99.90;;;;;;5008474;28;20488;-86
2022/08/20 09:09:55;;;;;;;9.40;5.67;;;20.20;99.90;;;;;;4993498;28;20443;-85
2022/08/20 09:12:26;;;;;;;8.25;5.38;;;20.20;99.90;;;;;;4993223;28;20444;-84
2022/08/20 09:14:54;;;;;;;11.48;6.22;;;20.20;99.90;;;;;;5008437;28;20408;-85
2022/08/20 09:17:22;;;;;;;9.75;6.03;;;20.10;99.90;;;;;;4991948;28;20481;-86
2022/08/20 09:19:51;;;;;;;11.18;6.07;;;20.10;99.90;;;;;;5008151;28;20424;-84
2022/08/20 09:22:22;;;;;;;8.10;5.55;;;20.00;99.90;;;;;;5008093;28;20424;-85
2022/08/20 09:24:50;;;;;;;9.57;6.00;;;20.00;99.90;;;;;;4991950;28;20424;-87
2022/08/20 09:27:18;;;;;;;10.20;5.93;;;20.00;99.90;;;;;;4993072;28;20876;-85
2022/08/20 09:29:46;;;;;;;9.63;5.80;;;20.10;99.90;;;;;;4992880;28;20397;-85
2022/08/20 09:32:23;;;;;;;11.32;6.00;;;20.20;99.90;;;;;;4991786;28;20389;-86
2022/08/20 09:34:55;;;;;;;11.25;5.75;;;20.20;99.90;;;;;;4991611;28;20790;-85
2022/08/20 09:37:28;;;;;;;17.00;6.07;;;20.20;99.90;;;;;;4991840;28;20407;-84
2022/08/20 09:40:05;;;;;;;12.35;6.07;;;20.20;99.90;;;;;;5007171;28;20391;-84
2022/08/20 09:42:35;;;;;;;11.82;6.50;;;20.30;99.90;;;;;;5007679;28;20397;-84
2022/08/20 09:45:08;;;;;;;10.52;6.18;;;20.30;99.90;;;;;;4992727;28;20400;-85
2022/08/20 09:47:38;;;;;;;12.02;5.80;;;20.50;99.90;;;;;;4991806;28;20397;-85
2022/08/20 09:50:21;;;;;;;9.93;5.68;;;20.40;99.90;;;;;;4991558;28;20411;-86
2022/08/20 09:52:51;;;;;;;11.50;5.72;;;20.40;99.90;;;;;;4992708;28;20396;-85
2022/08/20 09:55:32;;;;;;;9.82;5.53;;;20.30;99.90;;;;;;5007187;28;20409;-85
2022/08/20 09:58:18;;;;;;;13.40;5.32;;;20.30;99.90;;;;;;5007753;28;20400;-86
2022/08/20 10:00:46;;;;;;;10.68;5.60;;;20.30;99.90;;;;;;5007635;28;21127;-86
2022/08/20 10:03:15;;;;;;;15.18;5.95;;;20.30;99.90;;;;;;4991311;28;20388;-85
2022/08/20 10:05:43;;;;;;;10.87;5.77;;;20.30;99.90;;;;;;4992650;28;20397;-85
2022/08/20 10:08:11;;;;;;;10.27;5.45;;;20.30;99.90;;;;;;4992710;28;20472;-86
2022/08/20 10:10:39;;;;;;;11.52;5.28;;;20.30;99.90;;;;;;4991247;28;20389;-86
2022/08/20 10:13:07;;;;;;;9.97;5.53;;;20.30;99.90;;;;;;5007435;28;20419;-85
2022/08/20 10:15:39;;;;;;;12.07;5.60;;;20.30;99.90;;;;;;4992347;28;20416;-86
2022/08/20 10:18:09;;;;;;;9.03;5.43;;;20.30;99.90;;;;;;5007257;28;20389;-86
2022/08/20 10:20:39;;;;;;;10.52;5.72;;;20.40;99.90;;;;;;4991028;28;20986;-85
2022/08/20 10:23:07;;;;;;;8.18;5.47;;;20.40;99.90;;;;;;4991338;28;20392;-86
2022/08/20 10:25:34;;;;;;;10.20;5.45;;;20.40;99.90;;;;;;5007417;28;20480;-84
2022/08/20 10:28:03;;;;;;;10.10;5.07;;;20.50;99.90;;;;;;4990927;28;20484;-84
2022/08/20 10:30:31;;;;;;;13.63;5.60;;;20.40;99.90;;;;;;4990860;28;20393;-86
2022/08/20 10:33:00;;;;;;;8.70;5.33;;;20.40;99.90;;;;;;4990886;28;20397;-84
2022/08/20 10:35:28;;;;;;;10.93;5.20;;;20.30;99.90;;;;;;4992101;28;20491;-85
2022/08/20 10:37:56;;;;;;;12.25;5.95;;;20.40;99.90;;;;;;5007111;28;20389;-84
2022/08/20 10:40:24;;;;;;;10.55;5.55;;;20.30;99.90;;;;;;5007198;28;20428;-84
2022/08/20 10:42:52;;;;;;;17.83;5.88;;;20.40;99.90;;;;;;5006833;28;20396;-84
2022/08/20 10:45:21;;;;;;;10.10;5.30;;;20.40;99.90;;;;;;5007018;28;20393;-85
2022/08/20 10:47:49;;;;;;;9.05;4.90;;;20.50;99.90;;;;;;4990874;28;20404;-85
2022/08/20 10:50:18;;;;;;;11.27;6.03;;;20.50;99.90;;;;;;4990715;28;20484;-85
2022/08/20 10:52:46;;;;;;;9.70;5.32;;;20.50;99.90;;;;;;4991962;28;20403;-84
2022/08/20 10:55:15;;;;;;;9.43;5.43;;;20.50;99.90;;;;;;4991851;28;20970;-85
2022/08/20 10:57:43;;;;;;;10.85;5.32;;;20.60;99.90;;;;;;4991931;28;20392;-85
2022/08/20 11:00:16;;;;;;;13.00;5.68;;;20.60;99.90;;;;;;5006824;28;20417;-84
2022/08/20 11:02:44;;;;;;;9.45;4.82;;;20.60;99.90;;;;;;4991714;28;20425;-84
2022/08/20 11:05:12;;;;;;;6.85;4.97;;;20.60;99.90;;;;;;4990686;28;20484;-84
2022/08/20 11:07:42;;;;;;;9.50;4.72;;;20.60;99.90;;;;;;5009278;28;20392;-85
2022/08/20 11:10:32;;;;;;;9.82;5.28;;;20.70;99.90;;;;;;4995397;28;20389;-84
2022/08/20 11:13:02;;;;;;;10.93;5.68;;;20.70;99.90;;;;;;4995491;28;20393;-85
2022/08/20 11:15:31;;;;;;;12.93;5.63;;;20.90;99.90;;;;;;4995365;28;20491;-83
2022/08/20 11:17:59;;;;;;;9.30;5.10;;;21.00;99.90;;;;;;4995350;28;20384;-85
2022/08/20 11:20:27;;;;;;;12.20;5.65;;;21.00;99.90;;;;;;5010292;28;20385;-82
2022/08/20 11:22:55;;;;;;;13.85;5.20;;;21.20;99.90;;;;;;5010284;28;20424;-85
2022/08/20 11:25:23;;;;;;;9.57;5.18;;;21.20;99.90;;;;;;4995404;28;20396;-85
2022/08/20 11:27:52;;;;;;;8.82;5.05;;;21.30;99.90;;;;;;5010196;28;20420;-85
2022/08/20 11:30:33;;;;;;;9.73;5.43;;;21.20;99.90;;;;;;4993987;28;20440;-85
2022/08/20 11:33:02;;;;;;;10.13;5.10;;;21.30;99.90;;;;;;5010203;28;20423;-85
2022/08/20 11:35:31;;;;;;;11.77;5.28;;;21.20;99.90;;;;;;4995044;28;20993;-83
2022/08/20 11:38:17;;;;;;;31.23;6.20;;;21.20;99.90;;;;;;4994958;28;20456;-85
2022/08/20 11:40:45;;;;;;;9.77;5.20;;;21.20;99.90;;;;;;4995019;28;20385;-85
2022/08/20 11:43:14;;;;;;;8.02;4.82;;;21.10;99.90;;;;;;4993889;28;20733;-86
2022/08/20 11:45:50;;;;;;;9.23;5.18;;;21.10;99.90;;;;;;4994950;28;20495;-85
2022/08/20 11:48:17;;;;;;;9.20;4.93;;;21.00;99.90;;;;;;5010111;28;20475;-86
2022/08/20 11:50:47;;;;;;;8.65;5.20;;;21.00;99.90;;;;;;4993461;28;20436;-84
2022/08/20 11:53:15;;;;;;;9.85;4.95;;;20.90;99.90;;;;;;5009753;28;20976;-85
2022/08/20 11:55:43;;;;;;;11.10;5.15;;;20.80;99.90;;;;;;4993428;28;20483;-86
2022/08/20 11:58:11;;;;;;;10.52;5.05;;;20.80;99.90;;;;;;5009753;28;20471;-85
2022/08/20 12:00:40;;;;;;;9.65;5.22;;;20.90;99.90;;;;;;4988532;28;20423;-86
2022/08/20 12:03:08;;;;;;;8.10;5.03;;;20.80;99.90;;;;;;4973930;28;20881;-86
2022/08/20 12:05:40;;;;;;;11.87;5.30;;;20.70;99.90;;;;;;4973859;28;20449;-85
2022/08/20 12:08:08;;;;;;;15.23;5.50;;;20.70;99.90;;;;;;4975045;28;20469;-85
2022/08/20 12:10:37;;;;;;;10.05;5.18;;;20.80;99.90;;;;;;4973850;28;20800;-85
2022/08/20 12:13:08;;;;;;;9.77;5.20;;;20.80;99.90;;;;;;4974945;28;20395;-85
2022/08/20 12:15:36;;;;;;;11.48;5.65;;;20.80;99.90;;;;;;4989933;28;20495;-85
2022/08/20 12:18:08;;;;;;;9.90;5.47;;;20.80;99.90;;;;;;4972445;28;20833;-84
2022/08/20 12:20:37;;;;;;;11.48;5.68;;;20.70;99.90;;;;;;4974799;28;20936;-85
2022/08/20 12:23:04;;;;;;;10.20;5.10;;;20.70;99.90;;;;;;4989612;28;20440;-85
2022/08/20 12:25:33;;;;;;;11.23;5.63;;;20.70;99.90;;;;;;4973422;28;20402;-85
2022/08/20 12:28:01;;;;;;;8.55;5.18;;;20.70;99.90;;;;;;4974643;28;21000;-84
2022/08/20 12:30:28;;;;;;;13.30;5.53;;;20.70;99.90;;;;;;4989487;28;20399;-85
2022/08/20 12:32:56;;;;;;;10.55;5.55;;;20.70;99.90;;;;;;4973377;28;20401;-86
2022/08/20 12:35:25;;;;;;;10.85;5.65;;;20.70;99.90;;;;;;4973378;28;20421;-85
2022/08/20 12:37:53;;;;;;;10.88;5.82;;;20.80;99.90;;;;;;4974574;28;20394;-85
2022/08/20 12:40:27;;;;;;;10.40;5.47;;;20.80;99.90;;;;;;4974430;28;20398;-85
2022/08/20 12:43:03;;;;;;;11.90;5.63;;;20.80;99.90;;;;;;4989071;28;20386;-85
2022/08/20 12:45:32;;;;;;;21.13;6.03;;;20.90;99.90;;;;;;4989473;28;20896;-86
2022/08/20 12:48:09;;;;;;;10.73;5.18;;;20.90;99.90;;;;;;4974399;28;20429;-85
2022/08/20 12:50:39;;;;;;;11.10;5.60;;;21.00;99.90;;;;;;4974260;28;20761;-86
2022/08/20 12:53:07;;;;;;;11.70;5.83;;;20.90;99.90;;;;;;4974514;28;20394;-84
2022/08/20 12:55:35;;;;;;;11.18;5.38;;;20.90;99.90;;;;;;4974358;28;20510;-85
2022/08/20 12:58:03;;;;;;;11.85;5.85;;;21.00;99.90;;;;;;4972935;28;20426;-86
2022/08/20 13:00:37;;;;;;;10.13;5.78;;;21.00;99.90;;;;;;4989126;28;20403;-86
2022/08/20 13:03:11;;;;;;;10.60;6.20;;;21.00;99.90;;;;;;4974170;28;20885;-85
2022/08/20 13:05:39;;;;;;;13.68;6.25;;;20.90;99.90;;;;;;4989125;28;20394;-86
2022/08/20 13:08:09;;;;;;;15.30;6.60;;;20.80;99.90;;;;;;4973940;28;20394;-87
2022/08/20 13:10:43;;;;;;;13.25;6.22;;;20.80;99.90;;;;;;4974238;28;20394;-86
2022/08/20 13:13:12;;;;;;;13.57;5.90;;;20.90;99.90;;;;;;4989006;28;20482;-85
2022/08/20 13:15:40;;;;;;;16.55;6.22;;;20.90;99.90;;;;;;4988756;28;20965;-85
2022/08/20 13:18:08;;;;;;;19.00;6.07;;;21.00;99.90;;;;;;4988740;28;20951;-86
2022/08/20 13:20:36;;;;;;;14.70;6.30;;;21.10;99.90;;;;;;4988625;28;20414;-85
2022/08/20 13:23:05;;;;;;;10.23;5.80;;;21.20;99.90;;;;;;4988712;28;20602;-86
2022/08/20 13:25:33;;;;;;;10.68;6.03;;;21.20;99.90;;;;;;4988497;28;20398;-84
2022/08/20 13:28:03;;;;;;;10.93;5.88;;;21.10;99.90;;;;;;4972357;28;20401;-85
2022/08/20 13:30:33;;;;;;;10.63;5.22;;;21.10;99.90;;;;;;4988243;28;20793;-85
2022/08/20 13:33:01;;;;;;;11.55;6.15;;;21.10;99.90;;;;;;4988466;28;20399;-85
2022/08/20 13:35:30;;;;;;;13.25;6.00;;;21.00;99.90;;;;;;4973715;28;20974;-86
2022/08/20 13:37:57;;;;;;;12.73;6.20;;;21.10;99.90;;;;;;4972207;28;20405;-86
2022/08/20 13:40:25;;;;;;;13.13;6.53;;;21.10;99.90;;;;;;4973341;28;20390;-85
2022/08/20 13:42:53;;;;;;;12.25;6.20;;;21.10;99.90;;;;;;4988315;28;20490;-86
2022/08/20 13:45:21;;;;;;;12.23;6.15;;;21.10;99.90;;;;;;4972154;28;20414;-86
2022/08/20 13:47:53;;;;;;;12.60;6.18;;;21.10;99.90;;;;;;4988025;28;20406;-84
2022/08/20 13:50:26;;;;;;;12.07;6.50;;;21.10;99.90;;;;;;4971867;28;20406;-85
2022/08/20 13:52:53;;;;;;;13.80;6.60;;;21.10;99.90;;;;;;4988003;28;20860;-85
2022/08/20 13:55:24;;;;;;;14.43;5.90;;;21.00;99.90;;;;;;4973103;28;20417;-85
2022/08/20 13:57:53;;;;;;;17.60;6.90;;;21.10;99.90;;;;;;4973527;28;20394;-85
2022/08/20 14:00:29;;;;;;;14.70;6.22;;;21.10;99.90;;;;;;4988139;28;20394;-85
2022/08/20 14:03:03;;;;;;;16.00;7.47;;;21.10;99.90;;;;;;4987820;28;20387;-85
2022/08/20 14:05:32;;;;;;;16.00;8.35;;;21.20;99.90;;;;;;4987968;28;20426;-85
2022/08/20 14:08:16;;;;;;;15.23;7.53;;;21.20;99.90;;;;;;4973106;28;20486;-86
2022/08/20 14:10:45;;;;;;;13.38;6.65;;;21.20;99.90;;;;;;4988025;28;20761;-85
2022/08/20 14:13:21;;;;;;;13.10;6.72;;;21.20;99.90;;;;;;4973130;28;20394;-85
2022/08/20 14:15:50;;;;;;;14.07;6.47;;;21.30;99.90;;;;;;4972811;28;20417;-85
2022/08/20 14:18:18;;;;;;;14.98;6.80;;;21.40;99.90;;;;;;4973030;28;20426;-84
2022/08/20 14:20:48;;;;;;;11.48;6.28;;;21.30;99.90;;;;;;4973052;28;20790;-85
2022/08/20 14:23:16;;;;;;;14.77;6.47;;;21.20;99.90;;;;;;4971749;28;20461;-85
2022/08/20 14:25:46;;;;;;;16.75;6.80;;;21.20;99.90;;;;;;4973011;28;20461;-85
2022/08/20 14:28:22;;;;;;;13.40;6.50;;;21.10;99.90;;;;;;4973116;28;20457;-86
2022/08/20 14:30:51;;;;;;;12.68;6.63;;;21.20;99.90;;;;;;4971742;28;20398;-85
2022/08/20 14:33:21;;;;;;;20.60;6.30;;;21.10;99.90;;;;;;4971499;28;20398;-85
2022/08/20 14:35:50;;;;;;;12.75;6.47;;;21.10;99.90;;;;;;4972722;28;20501;-85
2022/08/20 14:38:18;;;;;;;13.80;6.22;;;21.10;99.90;;;;;;4987797;28;20402;-85
2022/08/20 14:40:46;;;;;;;12.70;6.78;;;21.10;99.90;;;;;;4987783;28;20397;-85
2022/08/20 14:43:14;;;;;;;13.73;6.55;;;21.10;99.90;;;;;;4991277;28;20785;-85
2022/08/20 14:45:41;;;;;;;15.80;6.55;;;21.20;99.90;;;;;;4991629;28;20402;-85
2022/08/20 14:48:09;;;;;;;15.00;6.28;;;21.40;99.90;;;;;;4975158;28;20936;-85
2022/08/20 14:50:37;;;;;;;13.75;7.03;;;21.50;99.90;;;;;;4991158;28;20801;-85
2022/08/20 14:53:07;;;;;;;13.63;6.40;;;21.60;99.90;;;;;;4991309;28;20399;-87
2022/08/20 14:55:36;;;;;;;12.52;6.60;;;21.60;99.90;;;;;;4976857;28;20456;-85
2022/08/20 14:58:09;;;;;;;12.55;6.38;;;21.60;99.90;;;;;;4976289;28;20482;-84
2022/08/20 15:00:37;;;;;;;13.57;6.55;;;21.70;99.90;;;;;;4975168;28;20425;-84
2022/08/20 15:03:05;;;;;;;11.70;6.53;;;21.70;99.90;;;;;;4975073;28;20387;-86
2022/08/20 15:05:34;;;;;;;15.48;6.35;;;21.80;99.90;;;;;;4991079;28;20403;-85
2022/08/20 15:08:09;;;;;;;15.10;6.35;;;21.90;99.90;;;;;;4976203;28;20418;-85
2022/08/20 15:10:37;;;;;;;13.97;6.40;;;22.10;99.90;;;;;;4976504;28;20394;-85
2022/08/20 15:13:06;;;;;;;14.77;6.15;;;22.30;99.90;;;;;;4976013;28;20398;-85
2022/08/20 15:15:34;;;;;;;13.25;6.28;;;22.40;99.90;;;;;;4974929;28;20438;-85
2022/08/20 15:18:02;;;;;;;16.10;7.03;;;22.60;99.90;;;;;;4975982;28;20789;-85
2022/08/20 15:20:32;;;;;;;14.90;6.95;;;22.60;99.90;;;;;;4975894;28;20386;-85
2022/08/20 15:23:01;;;;;;;13.82;6.70;;;22.80;99.90;;;;;;4975769;28;20387;-85
2022/08/20 15:25:32;;;;;;;16.92;6.95;;;22.90;99.90;;;;;;4990813;28;20391;-85
2022/08/20 15:28:05;;;;;;;18.52;8.02;;;22.90;99.90;;;;;;4990892;28;20872;-86
2022/08/20 15:30:34;;;;;;;16.03;8.30;;;22.60;99.90;;;;;;4991114;28;20441;-85
2022/08/20 15:33:01;;;;;;;14.80;7.40;;;22.50;99.90;;;;;;4975623;28;20928;-85
2022/08/20 15:35:29;;;;;;;14.90;7.65;;;22.30;99.90;;;;;;4974509;28;20434;-85
2022/08/20 15:37:58;;;;;;;14.07;6.32;;;22.20;99.90;;;;;;4990501;28;20465;-85
2022/08/20 15:40:28;;;;;;;13.18;6.68;;;22.20;99.90;;;;;;4990833;28;20441;-85
2022/08/20 15:42:58;;;;;;;14.15;6.68;;;22.10;99.90;;;;;;4975625;28;20386;-85
2022/08/20 15:45:27;;;;;;;15.20;7.17;;;22.00;99.90;;;;;;4990680;28;20402;-85
2022/08/20 15:48:11;;;;;;;17.37;6.90;;;22.00;99.90;;;;;;4990362;28;20486;-85
2022/08/20 15:51:01;;;;;;;13.73;6.43;;;22.00;99.90;;;;;;4990169;28;20893;-86
2022/08/20 15:53:55;;;;;;;17.97;6.93;;;22.10;99.90;;;;;;4975075;28;20398;-84
2022/08/20 15:56:52;;;;;;;17.80;7.20;;;22.00;99.90;;;;;;4974288;28;20490;-85
2022/08/20 15:59:51;;;;;;;14.73;6.70;;;21.90;99.90;;;;;;4974106;28;20406;-86
2022/08/20 16:02:57;;;;;;;13.73;6.68;;;21.90;99.90;;;;;;4973878;28;20412;-85
2022/08/20 16:05:54;;;;;;;15.10;6.33;;;21.90;99.90;;;;;;4974499;28;20477;-86
2022/08/20 16:08:41;;;;;;;19.52;7.25;;;21.90;99.90;;;;;;4990494;28;20398;-85
2022/08/20 16:11:22;;;;;;;16.67;6.65;;;21.90;99.90;;;;;;4974260;28;20596;-85
2022/08/20 16:13:58;;;;;;;17.45;7.15;;;21.80;99.90;;;;;;4974948;28;20402;-85
2022/08/20 16:16:34;;;;;;;13.85;6.30;;;21.90;99.90;;;;;;4974916;28;20813;-84
2022/08/20 16:19:04;;;;;;;16.73;7.05;;;21.90;99.90;;;;;;4974893;28;20877;-84
2022/08/20 16:21:36;;;;;;;12.63;6.00;;;21.80;99.90;;;;;;4973646;28;20402;-86
2022/08/20 16:24:05;;;;;;;62.00;9.63;;;21.80;99.90;;;;;;4989963;28;20405;-84
2022/08/20 16:27:12;;;;;;;31.92;12.20;;;21.80;99.90;;;;;;4989187;28;20430;-85
2022/08/20 16:29:52;;;;;;;17.40;7.30;;;21.80;99.90;;;;;;4989492;28;20398;-85
2022/08/20 16:32:29;;;;;;;13.82;6.95;;;21.80;99.90;;;;;;4989550;28;20417;-84
2022/08/20 16:35:19;;;;;;;19.02;8.25;;;21.80;99.90;;;;;;4973181;28;20503;-86
2022/08/20 16:38:35;;;;;;;16.07;7.50;;;21.70;99.90;;;;;;4973323;28;20386;-84
2022/08/20 16:41:40;;;;;;;30.55;7.65;;;21.70;99.90;;;;;;4973048;28;20912;-85
2022/08/20 16:44:18;;;;;;;17.83;6.68;;;21.70;99.90;;;;;;4954123;28;20402;-85
2022/08/20 16:46:52;;;;;;;42.23;16.43;;;21.70;99.90;;;;;;4973093;28;20391;-85
2022/08/20 16:49:24;;;;;;;28.90;9.40;;;21.80;99.90;;;;;;4989230;28;20403;-85
2022/08/20 16:51:53;;;;;;;21.35;8.45;;;21.80;99.90;;;;;;4972906;28;20394;-86
2022/08/20 16:54:22;;;;;;;35.47;8.68;;;21.80;99.90;;;;;;4974196;28;20429;-85
2022/08/20 16:57:03;;;;;;;18.73;7.13;;;21.80;99.90;;;;;;4974187;28;20406;-86
2022/08/20 16:59:32;;;;;;;16.98;6.78;;;21.70;99.90;;;;;;4988975;28;20963;-85
2022/08/20 17:02:03;;;;;;;15.68;7.57;;;21.70;99.90;;;;;;4989042;28;20429;-85
2022/08/20 17:04:49;;;;;;;15.23;7.43;;;21.70;99.90;;;;;;4972333;28;20464;-85
2022/08/20 17:07:42;;;;;;;14.43;7.60;;;21.70;99.90;;;;;;4974050;28;20401;-85
2022/08/20 17:10:28;;;;;;;15.02;7.60;;;21.60;99.90;;;;;;4973759;28;20441;-84
2022/08/20 17:13:04;;;;;;;14.63;7.47;;;21.60;99.90;;;;;;4974099;28;20386;-85
2022/08/20 17:15:34;;;;;;;18.23;8.40;;;21.60;99.90;;;;;;4988634;28;20494;-86
2022/08/20 17:18:27;;;;;;;18.43;8.23;;;21.60;99.90;;;;;;4973744;28;20943;-85
2022/08/20 17:21:04;;;;;;;18.08;8.90;;;21.60;99.90;;;;;;4972443;28;20422;-87
2022/08/20 17:23:36;;;;;;;20.13;8.85;;;21.50;99.90;;;;;;4972549;28;20398;-85
2022/08/20 17:26:31;;;;;;;14.63;7.40;;;21.50;99.90;;;;;;4986194;28;20490;-84
2022/08/20 17:29:02;;;;;;;16.60;7.82;;;21.50;99.90;;;;;;4973613;28;20425;-85
2022/08/20 17:31:40;;;;;;;16.73;6.43;;;21.50;99.90;;;;;;4988763;28;20395;-85
2022/08/20 17:34:21;;;;;;;15.03;7.70;;;21.40;99.90;;;;;;4988531;28;20761;-86
2022/08/20 17:36:54;;;;;;;17.02;7.70;;;21.40;99.90;;;;;;4973537;28;20477;-85
2022/08/20 17:39:24;;;;;;;14.75;7.40;;;21.40;99.90;;;;;;4973524;28;20395;-85
2022/08/20 17:42:18;;;;;;;17.15;8.20;;;21.40;99.90;;;;;;4972040;28;20738;-85
2022/08/20 17:45:07;;;;;;;16.00;7.72;;;21.40;99.90;;;;;;4988254;28;20398;-85
2022/08/20 17:47:37;;;;;;;18.00;7.90;;;21.40;99.90;;;;;;4973213;28;20414;-85
2022/08/20 17:50:18;;;;;;;17.77;9.18;;;21.30;99.90;;;;;;4988158;28;20410;-85
2022/08/20 17:52:56;;;;;;;18.27;8.68;;;21.30;99.90;;;;;;4988106;28;20394;-85
2022/08/20 17:55:25;;;;;;;13.65;8.25;;;21.30;99.90;;;;;;4987948;28;20420;-85
2022/08/20 17:57:58;;;;;;;19.58;9.30;;;21.30;99.90;;;;;;4973308;28;20394;-85
2022/08/20 18:00:27;;;;;;;13.57;7.40;;;21.20;99.90;;;;;;4987627;28;20415;-85
2022/08/20 18:03:06;;;;;;;15.05;6.78;;;21.20;99.90;;;;;;4972901;28;20896;-84
2022/08/20 18:05:36;;;;;;;17.60;8.73;;;21.20;99.90;;;;;;4972001;28;20420;-85
2022/08/20 18:08:29;;;;;;;16.55;9.25;;;21.20;99.90;;;;;;4987780;28;20449;-85
2022/08/20 18:11:26;;;;;;;20.55;8.63;;;21.20;99.90;;;;;;4987837;28;20912;-85
2022/08/20 18:14:08;;;;;;;16.13;8.30;;;21.10;99.90;;;;;;4976193;28;20573;-85
2022/08/20 18:17:15;;;;;;;16.48;7.68;;;21.10;99.90;;;;;;4972980;28;20445;-85
2022/08/20 18:20:09;;;;;;;15.80;7.47;;;21.10;99.90;;;;;;4987736;28;20488;-84